Time;durP1;ratioP1;P1;durP2;ratioP2;P2;SDS_P1;SDS_P2;PMS_P1;PMS_P2;Temp;Humidity;BMP_temperature;BMP_pressure;BME280_temperature;BME280_humidity;BME280_pressure;Samples;Min_cycle;Max_cycle;Signal;HPM_P1;HPM_P2
2021/09/14 00:00:52;;;;;;;17.58;10.52;;;;;;;12.95;66.96;96480.59;5053448;28;20029;-63
2021/09/14 00:03:18;;;;;;;17.80;10.10;;;;;;;12.92;67.28;96477.25;5053376;28;20078;-65
2021/09/14 00:05:43;;;;;;;19.05;10.15;;;;;;;12.91;66.71;96472.94;5053353;28;20025;-65
2021/09/14 00:08:09;;;;;;;15.63;10.48;;;;;;;12.86;66.90;96476.63;5053298;28;20383;-63
2021/09/14 00:10:34;;;;;;;21.17;9.88;;;;;;;12.82;66.77;96474.25;5053316;28;20047;-66
2021/09/14 00:13:00;;;;;;;16.85;9.55;;;;;;;12.78;66.68;96470.91;5053219;28;20017;-63
2021/09/14 00:15:25;;;;;;;18.05;9.63;;;;;;;12.69;67.06;96472.19;5053337;28;20120;-65
2021/09/14 00:17:51;;;;;;;17.88;9.38;;;;;;;12.68;67.28;96472.25;5053228;28;20057;-65
2021/09/14 00:20:16;;;;;;;20.50;11.25;;;;;;;12.71;67.39;96472.13;5053144;28;20502;-64
2021/09/14 00:22:42;;;;;;;18.38;9.80;;;;;;;12.70;67.42;96462.56;5053007;28;20058;-62
2021/09/14 00:25:08;;;;;;;16.38;9.85;;;;;;;12.72;67.43;96476.44;5053071;28;20071;-61
2021/09/14 00:27:34;;;;;;;14.02;9.45;;;;;;;12.67;67.30;96476.66;5053146;28;20483;-65
2021/09/14 00:29:59;;;;;;;22.55;10.52;;;;;;;12.64;67.36;96475.03;5053098;28;20032;-66
2021/09/14 00:32:25;;;;;;;15.60;9.93;;;;;;;12.61;67.05;96476.94;5053100;28;20021;-63
2021/09/14 00:34:50;;;;;;;20.35;9.82;;;;;;;12.61;67.46;96482.19;5052002;28;20071;-63
2021/09/14 00:37:16;;;;;;;17.70;9.70;;;;;;;12.62;67.64;96481.28;5052952;28;20035;-62
2021/09/14 00:39:41;;;;;;;15.75;9.48;;;;;;;12.60;67.55;96475.25;5052827;28;20028;-64
2021/09/14 00:42:07;;;;;;;16.30;9.73;;;;;;;12.57;67.89;96478.00;5052922;28;20060;-61
2021/09/14 00:44:32;;;;;;;17.23;9.48;;;;;;;12.59;68.26;96486.66;5052927;28;20028;-64
2021/09/14 00:46:58;;;;;;;14.48;8.98;;;;;;;12.50;68.00;96474.84;5052891;28;20063;-65
2021/09/14 00:49:23;;;;;;;15.63;9.90;;;;;;;12.54;67.65;96481.63;5052768;28;20485;-63
2021/09/14 00:51:49;;;;;;;19.02;9.82;;;;;;;12.49;67.31;96473.13;5052798;28;20433;-64
2021/09/14 00:54:16;;;;;;;14.65;9.82;;;;;;;12.50;67.45;96473.03;5052965;28;20032;-65
2021/09/14 00:56:43;;;;;;;18.35;10.18;;;;;;;12.43;67.51;96465.56;5052923;28;20033;-66
2021/09/14 00:59:11;;;;;;;15.98;10.05;;;;;;;12.36;67.95;96473.72;5052654;28;20073;-65
2021/09/14 01:01:37;;;;;;;19.60;11.27;;;;;;;12.34;68.22;96474.72;5052766;28;20047;-65
2021/09/14 01:04:04;;;;;;;20.02;10.55;;;;;;;12.33;68.76;96476.47;5052745;28;20430;-65
2021/09/14 01:06:34;;;;;;;22.15;9.82;;;;;;;12.40;68.89;96477.03;5052790;28;20052;-65
2021/09/14 01:09:03;;;;;;;22.00;10.98;;;;;;;12.37;68.49;96474.53;5052653;28;20029;-65
2021/09/14 01:11:29;;;;;;;16.73;9.23;;;;;;;12.32;68.49;96477.41;5052673;28;20025;-62
2021/09/14 01:14:06;;;;;;;17.02;9.85;;;;;;;12.26;68.63;96480.28;5052555;28;20390;-63
2021/09/14 01:16:33;;;;;;;14.75;9.00;;;;;;;12.27;68.56;96474.13;5052643;28;20017;-62
2021/09/14 01:18:59;;;;;;;20.63;9.85;;;;;;;12.23;68.75;96476.06;5052436;28;20049;-63
2021/09/14 01:21:26;;;;;;;17.63;9.65;;;;;;;12.24;68.84;96475.13;5052483;28;20100;-64
2021/09/14 01:23:52;;;;;;;19.83;10.63;;;;;;;12.27;68.58;96479.38;5052465;28;20035;-66
2021/09/14 01:26:18;;;;;;;19.17;10.70;;;;;;;12.29;68.41;96477.53;5052422;28;20351;-63
2021/09/14 01:28:43;;;;;;;16.42;10.68;;;;;;;12.30;68.31;96481.00;5052603;28;20447;-63
2021/09/14 01:31:09;;;;;;;18.75;9.90;;;;;;;12.27;68.52;96482.00;5052578;28;20028;-64
2021/09/14 01:33:34;;;;;;;18.20;10.50;;;;;;;12.17;68.63;96471.09;5052362;28;20463;-65
2021/09/14 01:36:00;;;;;;;21.92;10.70;;;;;;;12.12;68.73;96468.66;5052333;28;20100;-63
2021/09/14 01:38:25;;;;;;;17.75;10.68;;;;;;;12.10;68.94;96470.50;5052244;28;20509;-64
2021/09/14 01:40:53;;;;;;;16.10;10.68;;;;;;;11.97;69.39;96470.19;5052373;28;20029;-63
2021/09/14 01:43:20;;;;;;;23.17;11.98;;;;;;;11.99;69.21;96473.59;5052383;28;20021;-64
2021/09/14 01:45:45;;;;;;;21.15;11.57;;;;;;;12.01;69.80;96474.34;5053802;28;20017;-66
2021/09/14 01:48:11;;;;;;;22.60;11.93;;;;;;;12.04;70.39;96469.91;5055851;28;20013;-63
2021/09/14 01:50:37;;;;;;;21.45;12.38;;;;;;;12.05;69.94;96468.97;5055876;28;20387;-62
2021/09/14 01:53:04;;;;;;;18.20;12.80;;;;;;;12.08;70.67;96467.09;5056049;28;20024;-62
2021/09/14 01:55:30;;;;;;;20.13;11.85;;;;;;;12.10;69.90;96464.41;5056039;28;20025;-65
2021/09/14 01:57:56;;;;;;;21.42;11.90;;;;;;;12.09;69.21;96470.56;5055859;28;20029;-64
2021/09/14 02:00:25;;;;;;;21.10;12.63;;;;;;;12.01;69.31;96473.50;5055429;28;20519;-63
2021/09/14 02:59:23;;;;;;;20.13;12.23;;;;;;;11.51;71.35;96483.53;5054442;28;20045;-64
2021/09/14 03:01:49;;;;;;;20.58;12.32;;;;;;;11.55;71.70;96485.09;5054483;28;20039;-64
2021/09/14 03:04:16;;;;;;;22.70;12.45;;;;;;;11.50;71.18;96482.66;5054464;28;20025;-63
2021/09/14 03:06:41;;;;;;;19.67;12.25;;;;;;;11.46;71.43;96491.56;5054476;28;20021;-65
2021/09/14 03:09:06;;;;;;;22.23;12.10;;;;;;;11.46;71.63;96490.72;5054449;28;20390;-62
2021/09/14 03:11:32;;;;;;;24.58;10.95;;;;;;;11.47;71.66;96482.78;5054308;28;20025;-65
2021/09/14 03:13:58;;;;;;;19.27;9.95;;;;;;;11.43;71.45;96490.84;5054391;28;20032;-63
2021/09/14 03:16:24;;;;;;;18.75;10.90;;;;;;;11.46;71.36;96490.72;5054205;28;20029;-65
2021/09/14 03:18:49;;;;;;;17.55;11.18;;;;;;;11.42;71.67;96495.25;5054145;28;20024;-65
2021/09/14 03:21:16;;;;;;;23.30;11.27;;;;;;;11.44;71.56;96492.56;5054113;28;20064;-66
2021/09/14 03:23:42;;;;;;;23.23;11.07;;;;;;;11.46;71.50;96493.31;5054149;28;20052;-63
2021/09/14 03:26:08;;;;;;;17.48;11.18;;;;;;;11.52;71.60;96500.06;5054010;28;20056;-66
2021/09/14 03:28:33;;;;;;;18.58;10.57;;;;;;;11.56;71.27;96501.66;5053931;28;20025;-63
2021/09/14 03:30:59;;;;;;;16.52;10.45;;;;;;;11.48;71.57;96496.75;5053904;28;20036;-63
2021/09/14 03:33:25;;;;;;;17.27;11.18;;;;;;;11.39;71.54;96508.47;5054086;28;20024;-64
2021/09/14 03:35:50;;;;;;;16.90;10.13;;;;;;;11.42;71.63;96505.72;5053833;28;20055;-65
2021/09/14 03:38:16;;;;;;;20.20;10.50;;;;;;;11.43;71.95;96506.56;5053729;28;20025;-61
2021/09/14 03:40:43;;;;;;;25.05;11.65;;;;;;;11.44;71.65;96510.91;5053752;28;20505;-64
2021/09/14 03:43:10;;;;;;;20.63;11.32;;;;;;;11.45;71.63;96500.34;5053859;28;20021;-65
2021/09/14 03:45:36;;;;;;;22.02;10.50;;;;;;;11.47;71.56;96502.91;5053704;28;20053;-63
2021/09/14 03:48:02;;;;;;;18.25;10.43;;;;;;;11.47;71.70;96500.28;5053721;28;20023;-66
2021/09/14 03:50:27;;;;;;;23.77;12.05;;;;;;;11.53;71.53;96507.03;5053759;28;20111;-65
2021/09/14 03:52:53;;;;;;;17.15;9.45;;;;;;;11.55;71.14;96505.19;5053613;28;20102;-63
2021/09/14 03:55:18;;;;;;;20.50;10.82;;;;;;;11.53;71.30;96507.88;5053687;28;20032;-65
2021/09/14 03:57:44;;;;;;;15.75;10.23;;;;;;;11.53;71.49;96501.78;5053469;28;20033;-64
2021/09/14 04:00:11;;;;;;;16.23;10.20;;;;;;;11.56;71.44;96506.91;5053157;28;20041;-63
2021/09/14 04:02:44;;;;;;;20.90;11.05;;;;;;;11.53;71.43;96507.03;5053369;28;20137;-63
2021/09/14 04:05:25;;;;;;;23.55;10.38;;;;;;;11.56;71.74;96510.34;5053535;28;20064;-65
2021/09/14 04:10:29;;;;;;;16.27;9.93;;;;;;;11.62;71.51;96517.13;5053467;28;20107;-64
2021/09/14 04:12:54;;;;;;;21.45;9.77;;;;;;;11.64;71.68;96512.66;5053162;28;20044;-65
2021/09/14 04:15:20;;;;;;;16.45;9.90;;;;;;;11.66;71.35;96517.84;5053157;28;20527;-64
2021/09/14 04:17:45;;;;;;;19.35;9.80;;;;;;;11.67;71.65;96512.53;5053183;28;20051;-62
2021/09/14 04:20:11;;;;;;;15.40;9.25;;;;;;;11.73;71.24;96520.13;5053215;28;20048;-63
2021/09/14 04:22:37;;;;;;;18.67;8.93;;;;;;;11.73;71.49;96517.50;5053103;28;20029;-65
2021/09/14 04:25:03;;;;;;;22.10;10.20;;;;;;;11.71;71.75;96519.34;5053049;28;20024;-65
2021/09/14 04:27:28;;;;;;;14.52;9.82;;;;;;;11.72;71.66;96521.06;5053149;28;20417;-62
2021/09/14 04:29:54;;;;;;;13.95;8.88;;;;;;;11.73;72.23;96521.88;5053134;28;20025;-66
2021/09/14 04:32:19;;;;;;;20.67;9.13;;;;;;;11.75;72.18;96517.44;5053031;28;20024;-65
2021/09/14 04:34:45;;;;;;;29.23;10.13;;;;;;;11.79;71.95;96518.16;5053016;28;20036;-63
2021/09/14 04:37:10;;;;;;;28.70;10.18;;;;;;;11.92;72.57;96527.19;5052895;28;20379;-66
2021/09/14 04:39:36;;;;;;;19.77;9.98;;;;;;;12.33;71.94;96526.31;5052937;28;20021;-64
2021/09/14 04:42:01;;;;;;;20.58;9.77;;;;;;;12.94;69.99;96534.00;5052986;28;20118;-64
2021/09/14 04:44:27;;;;;;;21.20;9.02;;;;;;;13.64;68.03;96532.44;5053021;28;20489;-66
2021/09/14 04:46:52;;;;;;;24.92;9.35;;;;;;;14.43;66.58;96530.13;5052924;28;20032;-63
2021/09/14 04:49:18;;;;;;;15.80;8.35;;;;;;;15.25;63.80;96529.22;5052986;28;20405;-67
2021/09/14 04:51:43;;;;;;;18.33;7.00;;;;;;;16.01;60.73;96531.88;5052961;28;20060;-66
2021/09/14 04:54:09;;;;;;;11.63;6.72;;;;;;;16.73;58.26;96532.81;5052794;28;20374;-63
2021/09/14 04:56:34;;;;;;;18.30;7.13;;;;;;;17.47;57.05;96526.38;5052935;28;20394;-68
2021/09/14 04:59:00;;;;;;;14.90;7.53;;;;;;;18.14;54.92;96536.03;5052502;28;20395;-68
2021/09/14 05:01:26;;;;;;;20.05;7.80;;;;;;;18.87;53.29;96535.41;5052773;28;20025;-65
2021/09/14 05:03:51;;;;;;;22.60;7.15;;;;;;;19.57;51.37;96533.00;5052740;28;20427;-65
2021/09/14 05:06:17;;;;;;;19.35;7.00;;;;;;;20.29;50.47;96535.59;5052696;28;20071;-65
2021/09/14 05:08:42;;;;;;;27.80;6.85;;;;;;;20.94;49.00;96543.00;5052670;28;20484;-63
2021/09/14 05:11:08;;;;;;;18.00;7.13;;;;;;;21.52;47.35;96543.66;5052675;28;20025;-68
2021/09/14 05:13:36;;;;;;;14.35;7.15;;;;;;;22.16;46.69;96541.09;5052797;28;20348;-66
2021/09/14 05:16:02;;;;;;;14.48;7.03;;;;;;;22.74;45.08;96538.84;5052623;28;20037;-67
2021/09/14 05:18:28;;;;;;;14.88;7.10;;;;;;;23.33;44.21;96552.31;5052549;28;20360;-67
2021/09/14 05:20:55;;;;;;;25.30;7.50;;;;;;;23.88;44.27;96547.44;5054342;28;20029;-68
2021/09/14 05:23:30;;;;;;;15.02;6.78;;;;;;;24.44;42.40;96552.97;5056365;28;20067;-64
2021/09/14 05:26:01;;;;;;;19.33;6.50;;;;;;;25.10;42.34;96544.13;5056336;28;20104;-64
2021/09/14 05:28:26;;;;;;;16.73;6.80;;;;;;;25.72;40.51;96546.13;5056340;28;20029;-64
2021/09/14 05:30:53;;;;;;;11.50;6.38;;;;;;;26.08;40.02;96545.22;5056235;28;20033;-66
2021/09/14 05:33:18;;;;;;;14.45;7.10;;;;;;;26.59;39.26;96552.59;5056389;28;20410;-65
2021/09/14 05:35:47;;;;;;;13.68;7.18;;;;;;;27.08;38.25;96551.16;5056180;28;20017;-66
2021/09/14 05:38:15;;;;;;;12.10;7.10;;;;;;;27.44;37.75;96558.13;5056015;28;20482;-64
2021/09/14 05:40:41;;;;;;;12.63;6.72;;;;;;;27.86;38.08;96566.25;5056171;28;20082;-69
2021/09/14 05:43:06;;;;;;;14.88;6.95;;;;;;;28.20;36.41;96562.53;5054935;28;20111;-67
2021/09/14 05:45:33;;;;;;;10.30;6.60;;;;;;;28.36;35.33;96556.31;5056111;28;20357;-69
2021/09/14 05:47:59;;;;;;;17.38;7.13;;;;;;;28.92;36.32;96562.72;5056000;28;20025;-65
2021/09/14 05:50:25;;;;;;;10.80;6.85;;;;;;;29.44;35.80;96559.66;5055801;28;20426;-64
2021/09/14 05:52:51;;;;;;;19.15;7.68;;;;;;;29.84;35.73;96557.72;5055751;28;20022;-65
2021/09/14 05:55:16;;;;;;;14.10;7.13;;;;;;;30.08;33.30;96557.69;5055736;28;20025;-65
2021/09/14 05:57:42;;;;;;;15.30;5.95;;;;;;;29.73;32.71;96567.06;5055654;28;20021;-63
2021/09/14 06:00:09;;;;;;;11.65;6.18;;;;;;;29.82;34.91;96573.22;5055606;28;20045;-66
2021/09/14 06:02:34;;;;;;;13.95;7.10;;;;;;;30.09;34.27;96567.44;5055631;28;20021;-63
2021/09/14 06:05:00;;;;;;;10.25;6.55;;;;;;;30.50;34.29;96571.66;5055672;28;20112;-64
2021/09/14 06:07:26;;;;;;;13.77;6.45;;;;;;;30.70;35.06;96573.81;5055646;28;20032;-63
2021/09/14 06:09:51;;;;;;;9.55;6.22;;;;;;;30.96;33.84;96567.09;5055516;28;20371;-60
2021/09/14 06:12:17;;;;;;;9.25;6.00;;;;;;;31.13;35.00;96571.31;5055594;28;20065;-66
2021/09/14 06:14:42;;;;;;;10.82;6.65;;;;;;;31.38;33.82;96575.53;5055396;28;20052;-65
2021/09/14 06:17:08;;;;;;;13.13;6.53;;;;;;;31.49;33.76;96572.38;5055349;28;20063;-66
2021/09/14 06:19:33;;;;;;;12.65;6.40;;;;;;;31.46;33.99;96577.31;5054162;28;20026;-66
2021/09/14 06:22:01;;;;;;;14.95;7.10;;;;;;;31.11;32.96;96575.19;5055435;28;20021;-68
2021/09/14 06:24:27;;;;;;;10.68;7.53;;;;;;;31.18;33.94;96578.81;5055349;28;20048;-64
2021/09/14 06:26:52;;;;;;;13.27;7.30;;;;;;;31.24;33.65;96574.53;5055104;28;20377;-68
2021/09/14 06:29:18;;;;;;;9.98;7.13;;;;;;;31.28;32.14;96581.22;5055212;28;20017;-66
2021/09/14 06:31:44;;;;;;;13.32;8.10;;;;;;;31.40;32.07;96579.72;5055208;28;20032;-63
2021/09/14 06:34:09;;;;;;;11.95;6.78;;;;;;;31.51;32.82;96582.94;5055123;28;20082;-64
2021/09/14 06:36:35;;;;;;;8.48;6.68;;;;;;;31.54;32.63;96581.75;5055206;28;20107;-63
2021/09/14 06:39:00;;;;;;;10.68;6.70;;;;;;;31.60;32.93;96587.22;5054935;28;20491;-61
2021/09/14 06:41:27;;;;;;;21.83;7.60;;;;;;;31.65;33.49;96592.06;5054937;28;20035;-64
2021/09/14 06:43:53;;;;;;;15.25;7.38;;;;;;;31.51;32.00;96594.59;5054870;28;20032;-65
2021/09/14 06:46:19;;;;;;;17.63;7.30;;;;;;;31.44;30.97;96596.41;5054909;28;20479;-62
2021/09/14 06:48:44;;;;;;;14.02;7.18;;;;;;;31.55;31.09;96605.03;5054817;28;20059;-67
2021/09/14 06:51:10;;;;;;;11.02;7.00;;;;;;;31.48;31.92;96600.38;5054745;28;20036;-65
2021/09/14 06:53:36;;;;;;;15.45;7.60;;;;;;;31.54;29.74;96603.38;5054707;28;20075;-65
2021/09/14 06:56:02;;;;;;;11.93;7.60;;;;;;;30.71;26.61;96599.75;5054700;28;20026;-65
2021/09/14 06:58:28;;;;;;;15.43;6.72;;;;;;;30.79;30.64;96604.28;5054428;28;20136;-66
2021/09/14 07:00:53;;;;;;;8.98;6.40;;;;;;;30.58;27.05;96597.72;5054566;28;20072;-62
2021/09/14 07:03:19;;;;;;;13.07;7.13;;;;;;;30.28;28.06;96601.19;5054492;28;20033;-67
2021/09/14 07:05:45;;;;;;;10.38;6.63;;;;;;;29.67;26.81;96601.97;5054633;28;20033;-60
2021/09/14 07:08:10;;;;;;;13.38;6.80;;;;;;;29.41;28.95;96603.09;5054360;28;20028;-62
2021/09/14 07:10:36;;;;;;;8.98;6.32;;;;;;;29.17;26.99;96599.50;5054332;28;20021;-63
2021/09/14 07:13:01;;;;;;;12.48;6.72;;;;;;;28.68;28.72;96604.03;5054339;28;20028;-64
2021/09/14 07:15:27;;;;;;;21.02;6.88;;;;;;;28.04;28.11;96610.94;5054356;28;20438;-65
2021/09/14 07:17:52;;;;;;;12.00;7.20;;;;;;;27.95;29.23;96615.47;5054087;28;20184;-67
2021/09/14 07:20:18;;;;;;;12.65;6.90;;;;;;;27.89;28.78;96619.66;5054244;28;20024;-63
2021/09/14 07:22:43;;;;;;;12.40;6.72;;;;;;;27.43;29.09;96615.53;5054185;28;20032;-66
2021/09/14 07:25:09;;;;;;;15.48;6.75;;;;;;;27.10;29.88;96610.88;5054194;28;20085;-63
2021/09/14 07:27:35;;;;;;;14.57;7.13;;;;;;;27.18;31.55;96617.28;5054011;28;20039;-64
2021/09/14 07:30:01;;;;;;;12.05;7.13;;;;;;;27.49;30.43;96609.50;5054068;28;20112;-64
2021/09/14 07:32:27;;;;;;;14.30;7.55;;;;;;;27.85;32.91;96621.00;5054086;28;20106;-61
2021/09/14 07:34:53;;;;;;;12.02;7.15;;;;;;;28.26;29.53;96626.41;5053988;28;20025;-66
2021/09/14 07:37:18;;;;;;;15.45;7.38;;;;;;;28.43;29.12;96621.03;5053928;28;20024;-65
2021/09/14 07:39:44;;;;;;;10.50;6.70;;;;;;;28.54;29.92;96622.53;5053785;28;20017;-64
2021/09/14 07:42:10;;;;;;;13.52;7.07;;;;;;;28.63;28.47;96626.06;5053820;28;20498;-63
2021/09/14 07:44:35;;;;;;;11.38;6.97;;;;;;;27.85;29.23;96624.53;5053301;28;20020;-64
2021/09/14 07:47:01;;;;;;;14.20;7.38;;;;;;;27.82;30.32;96629.41;5053659;28;20025;-63
2021/09/14 07:49:27;;;;;;;12.32;8.00;;;;;;;28.10;29.90;96634.47;5053610;28;20025;-65
2021/09/14 07:51:52;;;;;;;20.25;7.38;;;;;;;28.18;28.32;96630.94;5053540;28;20096;-64
2021/09/14 07:54:18;;;;;;;13.38;7.65;;;;;;;27.84;29.57;96630.09;5053683;28;20467;-64
2021/09/14 07:56:43;;;;;;;16.73;7.25;;;;;;;27.82;30.83;96632.94;5053806;28;20021;-65
2021/09/14 07:59:09;;;;;;;11.27;7.40;;;;;;;27.68;29.56;96622.81;5053246;28;20553;-66
2021/09/14 08:01:35;;;;;;;13.48;7.55;;;;;;;27.34;28.95;96624.56;5053542;28;20021;-61
2021/09/14 08:04:00;;;;;;;15.05;8.38;;;;;;;27.69;31.17;96625.34;5035672;28;20518;-67
2021/09/14 08:06:26;;;;;;;15.60;7.90;;;;;;;28.05;29.24;96623.38;5053395;28;20046;-62
2021/09/14 08:08:52;;;;;;;15.82;7.47;;;;;;;27.74;28.64;96630.22;5053463;28;20060;-66
2021/09/14 08:11:18;;;;;;;12.13;7.60;;;;;;;27.63;29.45;96624.13;5053295;28;20124;-64
2021/09/14 08:13:45;;;;;;;13.65;7.28;;;;;;;27.68;29.63;96623.66;5053308;28;20025;-63
2021/09/14 08:16:11;;;;;;;11.93;7.88;;;;;;;27.60;30.18;96620.94;5053219;28;20070;-62
2021/09/14 08:18:37;;;;;;;15.23;7.50;;;;;;;27.24;30.53;96616.66;5053028;28;20025;-62
2021/09/14 08:21:03;;;;;;;13.30;6.85;;;;;;;27.32;30.58;96618.50;5053130;28;20021;-62
2021/09/14 08:23:28;;;;;;;15.02;8.00;;;;;;;27.60;31.10;96618.25;5053298;28;20411;-66
2021/09/14 08:25:54;;;;;;;14.55;7.38;;;;;;;27.66;29.71;96609.56;5053334;28;20112;-64
2021/09/14 08:28:20;;;;;;;13.10;7.20;;;;;;;27.59;30.30;96612.03;5053195;28;20123;-62
2021/09/14 08:30:46;;;;;;;16.02;6.80;;;;;;;27.70;30.06;96618.97;5053125;28;20021;-63
2021/09/14 08:33:11;;;;;;;14.75;6.63;;;;;;;27.43;29.64;96612.00;5052979;28;20013;-63
2021/09/14 08:35:37;;;;;;;18.08;7.78;;;;;;;27.14;31.13;96602.53;5051858;28;20032;-63
2021/09/14 08:38:03;;;;;;;11.52;6.95;;;;;;;27.10;31.40;96610.88;5052955;28;20050;-60
2021/09/14 08:40:28;;;;;;;17.15;7.45;;;;;;;27.38;31.65;96610.66;5053170;28;20044;-65
2021/09/14 08:42:56;;;;;;;11.60;6.45;;;;;;;27.32;30.57;96608.59;5053007;28;20111;-64
2021/09/14 08:45:22;;;;;;;15.50;7.38;;;;;;;27.30;30.86;96610.59;5052977;28;20124;-62
2021/09/14 08:47:48;;;;;;;11.73;6.10;;;;;;;27.42;30.59;96616.50;5051655;28;20047;-64
2021/09/14 08:50:13;;;;;;;12.02;7.13;;;;;;;27.56;31.13;96612.38;5053042;28;20112;-62
2021/09/14 08:52:39;;;;;;;11.15;7.28;;;;;;;27.19;30.87;96606.41;5052911;28;20111;-62
2021/09/14 08:55:05;;;;;;;14.05;6.60;;;;;;;27.21;30.41;96612.41;5053295;28;20372;-64
2021/09/14 08:57:31;;;;;;;9.52;7.00;;;;;;;27.21;30.75;96607.06;5056827;28;20025;-62
2021/09/14 08:59:57;;;;;;;11.75;6.85;;;;;;;27.23;30.63;96601.53;5055484;28;20475;-63
2021/09/14 09:02:23;;;;;;;11.35;6.38;;;;;;;27.24;30.94;96600.53;5056852;28;20036;-62
2021/09/14 09:05:05;;;;;;;12.05;6.82;;;;;;;27.31;31.55;96598.88;5056751;28;20036;-65
2021/09/14 09:07:37;;;;;;;10.30;6.22;;;;;;;27.40;29.67;96601.56;5056703;28;20029;-63
2021/09/14 09:10:20;;;;;;;15.85;7.07;;;;;;;27.38;33.10;96591.84;5056730;28;20459;-63
2021/09/14 09:12:47;;;;;;;10.80;6.25;;;;;;;27.32;31.09;96589.81;5056746;28;20033;-66
2021/09/14 09:15:27;;;;;;;13.63;6.72;;;;;;;27.28;30.91;96599.19;5056787;28;20052;-62
2021/09/14 09:18:08;;;;;;;10.65;6.40;;;;;;;27.08;31.64;96601.28;5056549;28;20154;-63
2021/09/14 09:20:35;;;;;;;11.95;5.78;;;;;;;27.17;31.16;96591.44;5056422;28;20039;-65
2021/09/14 09:23:06;;;;;;;11.57;6.75;;;;;;;27.35;31.77;96596.69;5056519;28;20025;-63
2021/09/14 09:25:32;;;;;;;12.50;6.80;;;;;;;27.43;33.63;96594.03;5056481;28;20036;-63
2021/09/14 09:28:10;;;;;;;14.00;7.13;;;;;;;27.50;34.21;96594.22;5056521;28;20082;-66
2021/09/14 09:30:39;;;;;;;13.20;6.63;;;;;;;27.61;31.47;96598.44;5056334;28;20029;-64
2021/09/14 09:33:07;;;;;;;11.65;6.95;;;;;;;27.50;30.49;96600.44;5056254;28;20049;-62
2021/09/14 09:35:38;;;;;;;12.35;6.95;;;;;;;27.51;30.56;96593.19;5056147;28;20029;-63
2021/09/14 09:38:05;;;;;;;14.13;7.10;;;;;;;27.58;31.33;96588.88;5055977;28;20031;-62
2021/09/14 09:40:34;;;;;;;11.98;6.45;;;;;;;27.47;32.52;96590.03;5056132;28;20047;-62
2021/09/14 09:43:05;;;;;;;12.57;6.78;;;;;;;27.41;30.72;96588.00;5056184;28;20027;-64
2021/09/14 09:45:31;;;;;;;12.52;6.53;;;;;;;27.48;31.26;96583.63;5056242;28;20029;-63
2021/09/14 09:47:57;;;;;;;10.23;7.05;;;;;;;27.48;31.55;96589.00;5055942;28;20446;-63
2021/09/14 09:50:23;;;;;;;17.67;6.57;;;;;;;27.50;30.54;96587.00;5055913;28;20108;-63
2021/09/14 09:52:49;;;;;;;11.00;6.72;;;;;;;27.67;31.77;96587.06;5056105;28;20032;-66
2021/09/14 09:55:15;;;;;;;10.75;6.25;;;;;;;27.52;30.53;96580.63;5055756;28;20029;-64
2021/09/14 09:57:41;;;;;;;9.02;5.90;;;;;;;27.41;29.70;96584.44;5055686;28;20071;-63
2021/09/14 10:00:12;;;;;;;14.98;6.35;;;;;;;27.37;31.72;96579.44;5054699;28;20048;-65
2021/09/14 10:03:02;;;;;;;12.32;5.65;;;;;;;27.08;32.18;96574.47;5054698;28;20063;-62
2021/09/14 10:05:39;;;;;;;11.55;6.47;;;;;;;27.33;31.99;96572.69;5054594;28;20029;-62
2021/09/14 10:08:09;;;;;;;12.07;7.10;;;;;;;27.68;31.01;96574.47;5054284;28;20039;-64
2021/09/14 10:10:36;;;;;;;10.65;6.28;;;;;;;27.68;31.50;96578.00;5054439;28;20029;-63
2021/09/14 10:13:07;;;;;;;10.73;6.47;;;;;;;27.72;30.90;96571.28;5054432;28;20025;-61
2021/09/14 10:15:38;;;;;;;9.57;5.82;;;;;;;27.87;29.06;96576.84;5054550;28;20521;-62
2021/09/14 10:18:06;;;;;;;9.23;5.90;;;;;;;27.81;28.91;96580.19;5053102;28;20029;-63
2021/09/14 10:20:42;;;;;;;12.52;5.93;;;;;;;27.60;29.49;96577.97;5054288;28;20021;-61
2021/09/14 10:23:15;;;;;;;13.82;5.90;;;;;;;27.55;30.50;96575.78;5054218;28;20423;-63
2021/09/14 10:25:40;;;;;;;8.35;5.88;;;;;;;27.56;29.74;96577.44;5054148;28;20540;-62
2021/09/14 10:28:15;;;;;;;13.40;6.50;;;;;;;27.54;29.09;96571.38;5054295;28;20037;-63
2021/09/14 10:30:42;;;;;;;12.35;5.93;;;;;;;27.48;30.47;96564.84;5054222;28;20021;-65
2021/09/14 10:33:29;;;;;;;12.43;6.05;;;;;;;27.43;30.08;96564.50;5054080;28;20425;-62
2021/09/14 10:35:56;;;;;;;10.95;6.60;;;;;;;27.47;30.70;96570.38;5054149;28;20013;-65
2021/09/14 10:38:23;;;;;;;14.80;6.50;;;;;;;27.48;31.14;96567.53;5053966;28;20033;-60
2021/09/14 10:40:53;;;;;;;10.23;6.80;;;;;;;27.50;30.56;96562.84;5053958;28;20483;-62
2021/09/14 10:43:27;;;;;;;10.77;5.55;;;;;;;27.48;29.02;96564.03;5054098;28;20032;-62
2021/09/14 10:45:54;;;;;;;12.25;5.82;;;;;;;27.42;28.90;96553.94;5053883;28;20403;-64
2021/09/14 10:48:24;;;;;;;14.30;6.40;;;;;;;27.36;29.80;96555.44;5053821;28;20021;-63
2021/09/14 10:50:52;;;;;;;11.55;5.93;;;;;;;27.51;30.69;96544.88;5053941;28;20028;-62
2021/09/14 10:53:29;;;;;;;8.88;5.65;;;;;;;27.51;29.62;96555.59;5053832;28;20479;-63
2021/09/14 10:55:59;;;;;;;11.90;6.13;;;;;;;27.57;29.46;96552.25;5053963;28;20028;-64
2021/09/14 10:58:27;;;;;;;9.25;7.13;;;;;;;27.64;30.91;96555.13;5001406;28;1496589;-64
2021/09/14 11:00:53;;;;;;;13.30;6.20;;;;;;;27.60;29.49;96545.75;5054654;28;20051;-65
2021/09/14 11:03:19;;;;;;;8.18;5.68;;;;;;;27.63;30.62;96543.53;5053388;28;20033;-63
2021/09/14 11:05:50;;;;;;;11.23;6.30;;;;;;;27.71;28.90;96548.13;5054653;28;20017;-64
2021/09/14 11:08:20;;;;;;;11.10;6.13;;;;;;;27.79;29.33;96543.75;5054460;28;20422;-65
2021/09/14 11:10:46;;;;;;;7.55;5.85;;;;;;;27.83;29.97;96540.56;5054461;28;20048;-64
2021/09/14 11:13:38;;;;;;;11.38;6.13;;;;;;;27.88;30.05;96538.19;5054358;28;20468;-63
2021/09/14 11:16:05;;;;;;;9.85;6.10;;;;;;;27.89;31.89;96547.13;5053094;28;20479;-64
2021/09/14 11:18:32;;;;;;;13.52;6.57;;;;;;;27.83;30.17;96537.88;5053444;28;20041;-63
2021/09/14 11:21:04;;;;;;;9.40;5.75;;;;;;;28.02;29.55;96543.91;5054131;28;20021;-61
2021/09/14 11:23:30;;;;;;;9.23;5.32;;;;;;;27.79;28.68;96544.59;5054166;28;20045;-64
2021/09/14 11:25:56;;;;;;;13.07;5.15;;;;;;;27.59;28.84;96533.28;5054117;28;20078;-62
2021/09/14 11:28:23;;;;;;;10.52;4.70;;;;;;;27.62;30.43;96531.13;5054047;28;20487;-64
2021/09/14 11:30:57;;;;;;;8.43;5.80;;;;;;;27.67;29.40;96537.88;5054042;28;20048;-64
2021/09/14 11:33:24;;;;;;;10.93;5.70;;;;;;;27.66;29.09;96537.03;5053939;28;20036;-61
2021/09/14 11:35:50;;;;;;;12.43;6.22;;;;;;;27.59;31.33;96525.25;5053893;28;20048;-64
2021/09/14 11:38:19;;;;;;;13.55;6.32;;;;;;;27.69;30.16;96519.75;5053901;28;20027;-64
2021/09/14 11:40:53;;;;;;;13.13;5.75;;;;;;;27.74;30.38;96522.75;5053808;28;20119;-63
2021/09/14 11:43:21;;;;;;;8.25;5.32;;;;;;;27.84;29.65;96523.44;5053893;28;20033;-65
2021/09/14 11:45:48;;;;;;;9.40;5.57;;;;;;;27.87;29.45;96520.41;5053688;28;20054;-62
2021/09/14 11:48:31;;;;;;;11.15;6.05;;;;;;;27.96;29.35;96518.56;5053738;28;20053;-64
2021/09/14 11:51:03;;;;;;;10.13;6.00;;;;;;;27.72;29.36;96522.94;5053823;28;20029;-62
2021/09/14 11:53:29;;;;;;;9.07;5.32;;;;;;;27.68;30.61;96510.00;5053658;28;20028;-64
2021/09/14 11:55:54;;;;;;;7.93;5.28;;;;;;;27.67;29.27;96506.50;5053652;28;20033;-64
2021/09/14 11:58:30;;;;;;;9.55;5.35;;;;;;;27.86;29.92;96512.53;5053225;28;20180;-62
2021/09/14 12:01:07;;;;;;;9.15;6.35;;;;;;;28.07;29.87;96512.00;5053674;28;20074;-63
2021/09/14 12:03:44;;;;;;;12.60;5.70;;;;;;;28.14;27.85;96517.53;5053621;28;20032;-66
2021/09/14 12:06:11;;;;;;;7.50;5.47;;;;;;;28.12;30.03;96506.94;5053574;28;20453;-66
2021/09/14 12:08:42;;;;;;;11.80;5.95;;;;;;;27.94;29.10;96507.16;5053401;28;20095;-66
2021/09/14 12:11:09;;;;;;;7.93;5.15;;;;;;;28.03;28.53;96507.13;5053383;28;20020;-63
2021/09/14 12:13:43;;;;;;;8.68;5.30;;;;;;;27.91;27.60;96503.94;5053265;28;20025;-61
2021/09/14 12:16:13;;;;;;;12.82;5.28;;;;;;;27.87;28.34;96498.91;5053296;28;20021;-63
2021/09/14 12:18:42;;;;;;;8.05;4.88;;;;;;;27.92;27.81;96502.94;5053213;28;20383;-62
2021/09/14 12:21:09;;;;;;;7.85;4.95;;;;;;;27.83;28.40;96497.59;5053281;28;20040;-65
2021/09/14 12:23:35;;;;;;;7.82;5.32;;;;;;;27.78;28.07;96499.91;5051859;28;20139;-63